Ulisse Primo — INLN — position and weather

sailwx.info

Track history (hours):
 
Tides and Currents Weather Stations Pressure Air Temp Water Temp Dewpoint Dewpoint Depression Visibility Wind Speed Wind Dir Waves Ship Positions

Ulisse Primo

Last reported at 2016-Sep-29 23:32 UTC. Time now 2016-Sep-30 18:34 UTC.
Position N 43°37' E 013°30'.

Length 50 m.

Type: Other ship. MMSI: 247033000.

Date/timePositionNaut miles runAvg speedWind from/ knotsBaromVisibWave heightAir tempDewpointWater temp
2016-Sep-29 23:32N 43°37' E 013°30'0 0.0
2016-Sep-29 20:08N 43°37' E 013°30'0 0.0
2016-Sep-29 19:32N 43°37' E 013°30'73 3.0
2016-Sep-28 19:28N 44°46' E 012°58'23 7.8
2016-Sep-28 16:33N 45°07' E 012°47'8 8.4
2016-Sep-28 15:33N 45°15' E 012°43'15 5.0
2016-Sep-28 12:33N 45°29' E 012°35'0 0.0
2016-Sep-28 08:33N 45°29' E 012°35'22 4.3
2016-Sep-28 03:33N 45°12' E 012°16'0 0.0
2016-Sep-28 02:33N 45°12' E 012°16'0 0.0
2016-Sep-28 01:33N 45°12' E 012°16'0 0.0
2016-Sep-27 23:33N 45°12' E 012°16'0 0.0
2016-Sep-27 19:33N 45°12' E 012°16'0 0.0
2016-Sep-27 14:33N 45°12' E 012°16'0 0.0
2016-Sep-27 13:34N 45°12' E 012°16'0 0.0
2016-Sep-27 10:33N 45°12' E 012°16'0 0.0
2016-Sep-27 00:33N 45°12' E 012°16'25 6.4
2016-Sep-26 20:33N 44°54' E 012°40'8 8.2
2016-Sep-26 19:33N 44°47' E 012°46'  
Track history (hours):
 
Tides and Currents Weather Stations Pressure Air Temp Water Temp Dewpoint Dewpoint Depression Visibility Wind Speed Wind Dir Waves Ship Positions

Ulisse Primo

Last reported at 2016-Sep-29 23:32 UTC. Time now 2016-Sep-30 18:34 UTC.
Position N 43°37' E 013°30'.

Length 50 m.

Type: Other ship. MMSI: 247033000.

Date/timePositionNaut miles runAvg speedWind from/ knotsBaromVisibWave heightAir tempDewpointWater temp
2016-Sep-29 23:32N 43°37' E 013°30'0 0.0
2016-Sep-29 20:08N 43°37' E 013°30'0 0.0
2016-Sep-29 19:32N 43°37' E 013°30'73 3.0
2016-Sep-28 19:28N 44°46' E 012°58'23 7.8
2016-Sep-28 16:33N 45°07' E 012°47'8 8.4
2016-Sep-28 15:33N 45°15' E 012°43'15 5.0
2016-Sep-28 12:33N 45°29' E 012°35'0 0.0
2016-Sep-28 08:33N 45°29' E 012°35'22 4.3
2016-Sep-28 03:33N 45°12' E 012°16'0 0.0
2016-Sep-28 02:33N 45°12' E 012°16'0 0.0
2016-Sep-28 01:33N 45°12' E 012°16'0 0.0
2016-Sep-27 23:33N 45°12' E 012°16'0 0.0
2016-Sep-27 19:33N 45°12' E 012°16'0 0.0
2016-Sep-27 14:33N 45°12' E 012°16'0 0.0
2016-Sep-27 13:34N 45°12' E 012°16'0 0.0
2016-Sep-27 10:33N 45°12' E 012°16'0 0.0
2016-Sep-27 00:33N 45°12' E 012°16'25 6.4
2016-Sep-26 20:33N 44°54' E 012°40'8 8.2
2016-Sep-26 19:33N 44°47' E 012°46'  

Dump ship's entire track history